createdAt,value
2023-02-07T00:01:40.852Z,17.15
2023-02-07T00:04:09.182Z,15.88
2023-02-07T00:06:37.599Z,20.45
2023-02-07T00:09:07.965Z,16.98
2023-02-07T00:11:37.785Z,15.98
2023-02-07T00:14:06.185Z,16.85
2023-02-07T00:16:34.935Z,15.38
2023-02-07T00:21:31.076Z,14.50
2023-02-07T00:23:59.554Z,14.77
2023-02-07T00:26:28.763Z,16.38
2023-02-07T00:28:57.874Z,13.75
2023-02-07T00:31:29.682Z,15.73
2023-02-07T00:34:03.146Z,20.33
2023-02-07T00:36:33.580Z,18.23
2023-02-07T00:39:04.709Z,12.63
2023-02-07T00:41:33.546Z,16.15
2023-02-07T00:46:31.461Z,15.57
2023-02-07T00:49:01.051Z,18.20
2023-02-07T00:51:29.487Z,15.30
2023-02-07T00:54:00.658Z,17.20
2023-02-07T00:56:30.909Z,18.55
2023-02-07T00:59:00.043Z,18.40
2023-02-07T01:01:28.545Z,18.65
2023-02-07T01:03:58.234Z,13.10
2023-02-07T01:06:26.815Z,14.40
2023-02-07T01:09:03.210Z,16.10
2023-02-07T01:11:33.064Z,16.02
2023-02-07T01:14:01.972Z,15.55
2023-02-07T01:16:37.170Z,16.38
2023-02-07T01:19:11.383Z,17.77
2023-02-07T01:21:39.798Z,15.57
2023-02-07T01:24:08.847Z,18.25
2023-02-07T01:26:38.629Z,17.98
2023-02-07T01:29:07.478Z,17.52
2023-02-07T01:31:36.258Z,20.73
2023-02-07T01:34:05.720Z,20.55
2023-02-07T01:36:34.316Z,15.95
2023-02-07T01:39:02.506Z,15.68
2023-02-07T01:41:30.986Z,18.80
2023-02-07T01:44:08.739Z,18.17
2023-02-07T01:46:37.651Z,16.95
2023-02-07T01:49:14.114Z,17.23
2023-02-07T01:51:50.143Z,18.35
2023-02-07T01:54:19.366Z,16.70
2023-02-07T01:56:52.806Z,19.40
2023-02-07T01:59:21.973Z,21.48
2023-02-07T02:01:50.477Z,18.48
2023-02-07T02:04:19.265Z,20.25
2023-02-07T02:06:47.885Z,20.33
2023-02-07T02:09:17.124Z,21.70
2023-02-07T02:12:06.143Z,19.95
2023-02-07T02:14:51.997Z,18.10
2023-02-07T02:17:57.346Z,18.23
2023-02-07T02:20:37.780Z,21.10
2023-02-07T02:23:09.102Z,20.02
2023-02-07T02:26:05.021Z,19.13
2023-02-07T02:29:04.417Z,17.25
2023-02-07T02:31:35.733Z,20.67
2023-02-07T02:34:35.815Z,16.92
2023-02-07T02:37:18.877Z,18.55
2023-02-07T02:40:11.038Z,14.88
2023-02-07T02:42:43.780Z,20.77
2023-02-07T02:45:40.554Z,17.35
2023-02-07T02:48:11.961Z,14.48
2023-02-07T02:50:45.648Z,19.17
2023-02-07T02:53:16.046Z,17.55
2023-02-07T02:56:05.965Z,19.85
2023-02-07T02:59:10.482Z,21.10
2023-02-07T03:01:44.691Z,20.42
2023-02-07T03:04:46.545Z,23.13
2023-02-07T03:07:43.934Z,23.77
2023-02-07T03:10:19.994Z,19.58
2023-02-07T03:13:16.107Z,20.88
2023-02-07T03:16:05.614Z,19.65
2023-02-07T03:18:46.340Z,24.40
2023-02-07T03:21:20.729Z,28.50
2023-02-07T03:23:52.000Z,21.63
2023-02-07T03:26:22.219Z,22.83
2023-02-07T03:28:56.944Z,22.10
2023-02-07T03:31:27.677Z,23.23
2023-02-07T03:34:04.084Z,24.25
2023-02-07T03:37:01.899Z,24.63
2023-02-07T03:39:30.334Z,26.98
2023-02-07T03:42:02.880Z,25.60
2023-02-07T03:44:34.454Z,29.50
2023-02-07T03:47:02.851Z,25.65
2023-02-07T03:49:31.123Z,27.95
2023-02-07T03:51:59.398Z,27.45
2023-02-07T03:54:27.868Z,30.65
2023-02-07T03:56:56.153Z,26.00
2023-02-07T03:59:24.337Z,26.80
2023-02-07T04:01:52.674Z,26.98
2023-02-07T04:04:21.298Z,27.50
2023-02-07T04:06:49.486Z,25.63
2023-02-07T04:09:17.750Z,27.88
2023-02-07T04:11:49.217Z,26.60
2023-02-07T04:14:17.946Z,25.70
2023-02-07T04:19:14.866Z,26.73
2023-02-07T04:21:43.650Z,25.73
2023-02-07T04:24:12.773Z,32.45
2023-02-07T04:26:42.018Z,29.00
2023-02-07T04:29:10.378Z,26.10
2023-02-07T04:31:38.864Z,30.25
2023-02-07T04:34:07.001Z,25.85
2023-02-07T04:36:35.255Z,25.30
2023-02-07T04:39:04.300Z,31.08
2023-02-07T04:41:32.806Z,26.38
2023-02-07T04:44:01.100Z,27.48
2023-02-07T04:46:29.296Z,26.02
2023-02-07T04:48:59.198Z,26.20
2023-02-07T04:51:27.659Z,29.20
2023-02-07T04:53:55.954Z,26.33
2023-02-07T04:56:24.744Z,27.00
2023-02-07T05:01:21.117Z,25.13
2023-02-07T05:03:49.365Z,19.70
2023-02-07T05:06:17.690Z,21.98
2023-02-07T05:08:45.873Z,23.38
2023-02-07T05:11:14.241Z,32.00
2023-02-07T05:13:42.491Z,26.50
2023-02-07T05:16:10.781Z,27.88
2023-02-07T05:18:39.000Z,25.17
2023-02-07T05:21:07.346Z,27.92
2023-02-07T05:23:35.570Z,26.75
2023-02-07T05:26:03.950Z,27.35
2023-02-07T05:28:32.238Z,23.77
2023-02-07T05:31:00.428Z,26.60
2023-02-07T05:33:28.890Z,22.98
2023-02-07T05:35:57.131Z,23.98
2023-02-07T05:38:25.318Z,23.65
2023-02-07T05:40:53.581Z,24.73
2023-02-07T05:43:21.949Z,26.25
2023-02-07T05:45:50.675Z,27.85
2023-02-07T05:48:19.056Z,24.95
2023-02-07T05:50:47.366Z,28.13
2023-02-07T05:53:15.519Z,22.92
2023-02-07T05:55:43.944Z,24.90
2023-02-07T05:58:12.062Z,25.00
2023-02-07T06:00:40.318Z,23.40
2023-02-07T06:03:08.612Z,21.70
2023-02-07T06:05:37.129Z,20.75
2023-02-07T06:10:33.691Z,20.13
2023-02-07T06:13:02.110Z,18.67
2023-02-07T06:15:30.475Z,22.88
2023-02-07T06:17:59.607Z,23.90
2023-02-07T06:20:27.876Z,19.38
2023-02-07T06:22:56.885Z,24.55
2023-02-07T06:25:25.335Z,22.02
2023-02-07T06:27:53.616Z,22.38
2023-02-07T06:30:21.967Z,22.48
2023-02-07T06:32:50.198Z,23.83
2023-02-07T06:35:18.752Z,22.77
2023-02-07T06:37:46.925Z,20.85
2023-02-07T06:40:15.520Z,19.73
2023-02-07T18:24:05.963Z,24.10
2023-02-07T18:26:34.543Z,26.08
2023-02-07T18:29:02.986Z,22.23
2023-02-07T18:31:31.560Z,23.83
2023-02-07T18:39:40.303Z,17.75
2023-02-07T18:42:08.620Z,18.83
2023-02-07T18:44:36.943Z,24.15
2023-02-07T18:47:05.213Z,23.33
2023-02-07T18:49:34.895Z,21.90
2023-02-07T18:52:03.984Z,18.67
2023-02-07T18:54:32.462Z,20.20
2023-02-07T18:59:29.292Z,18.75
2023-02-07T19:01:57.616Z,20.75
2023-02-07T19:04:26.103Z,17.35
2023-02-07T19:06:54.394Z,20.35
2023-02-07T19:11:52.413Z,19.95
2023-02-07T19:14:23.911Z,17.98
2023-02-07T19:16:53.570Z,20.30
2023-02-07T19:19:22.646Z,19.70
2023-02-07T19:21:52.120Z,18.10
2023-02-07T19:24:21.959Z,19.02
2023-02-07T19:26:53.024Z,21.25
2023-02-07T19:29:23.718Z,16.48
2023-02-07T19:31:51.924Z,19.23
2023-02-07T19:34:20.154Z,14.00
2023-02-07T19:36:48.449Z,15.32
2023-02-07T19:39:16.899Z,16.77
2023-02-07T19:41:45.250Z,13.65
2023-02-07T19:44:13.906Z,21.45
2023-02-07T19:49:11.719Z,16.65
2023-02-07T19:51:40.851Z,16.00
2023-02-07T19:54:09.287Z,15.13
2023-02-07T19:56:40.738Z,16.55
2023-02-07T19:59:08.975Z,16.48
2023-02-07T20:01:37.879Z,14.82
2023-02-07T20:04:06.680Z,14.25
2023-02-07T20:06:35.979Z,14.23
2023-02-07T20:09:06.562Z,12.95
2023-02-07T20:11:35.843Z,16.58
2023-02-07T20:14:04.511Z,13.50
2023-02-07T20:16:36.094Z,16.77
2023-02-07T20:19:08.240Z,14.57
2023-02-07T20:21:37.625Z,15.30
2023-02-07T20:24:06.718Z,12.10
2023-02-07T20:26:43.762Z,13.02
2023-02-07T20:29:17.815Z,14.45
2023-02-07T20:31:47.891Z,13.52
2023-02-07T20:34:17.358Z,13.02
2023-02-07T20:36:45.599Z,11.63
2023-02-07T20:39:16.775Z,15.93
2023-02-07T20:41:46.071Z,15.93
2023-02-07T20:44:20.422Z,16.05
2023-02-07T20:46:49.853Z,12.32
2023-02-07T20:49:26.110Z,11.02
2023-02-07T20:51:55.186Z,11.70
2023-02-07T20:54:26.808Z,12.70
2023-02-07T20:56:56.071Z,14.50
2023-02-07T20:59:29.978Z,14.50
2023-02-07T21:01:58.474Z,12.70
2023-02-07T21:04:28.324Z,15.88
2023-02-07T21:06:56.857Z,12.20
2023-02-07T21:11:55.882Z,16.65
2023-02-07T21:14:26.806Z,14.75
2023-02-07T21:16:56.655Z,12.10
2023-02-07T21:19:26.139Z,16.13
2023-02-07T21:21:54.913Z,12.90
2023-02-07T21:24:23.703Z,13.32
2023-02-07T21:26:53.281Z,13.95
2023-02-07T21:29:22.211Z,15.40
2023-02-07T21:31:51.552Z,15.65
2023-02-07T21:34:20.049Z,13.75
2023-02-07T21:36:49.665Z,12.95
2023-02-07T21:39:18.207Z,15.93
2023-02-07T21:41:52.190Z,14.25
2023-02-07T21:44:20.554Z,14.98
2023-02-07T21:46:49.173Z,16.30
2023-02-07T21:49:18.760Z,14.07
2023-02-07T21:51:48.660Z,14.73
2023-02-07T21:54:17.440Z,18.63
2023-02-07T21:56:46.327Z,15.30
2023-02-07T21:59:17.868Z,13.93
2023-02-07T22:01:47.342Z,14.70
2023-02-07T22:04:17.295Z,17.95
2023-02-07T22:06:46.269Z,17.38
2023-02-07T22:09:16.851Z,14.43
2023-02-07T22:11:45.537Z,14.27
2023-02-07T22:14:14.572Z,20.75
2023-02-07T22:16:43.479Z,16.63
2023-02-07T22:19:14.342Z,18.52
2023-02-07T22:21:42.603Z,12.48
2023-02-07T22:24:23.407Z,12.40
2023-02-07T22:26:59.641Z,13.98
2023-02-07T22:29:28.070Z,14.23
2023-02-07T22:31:56.473Z,13.25
2023-02-07T22:34:24.766Z,11.90
2023-02-07T22:36:53.318Z,14.68
2023-02-07T22:39:21.558Z,15.63
2023-02-07T22:41:50.015Z,12.60
2023-02-07T22:44:18.283Z,12.82
2023-02-07T22:46:47.868Z,13.80
2023-02-07T22:49:16.262Z,14.60
2023-02-07T22:51:44.613Z,12.48
2023-02-07T22:54:17.969Z,14.80
2023-02-07T22:56:57.455Z,16.45
2023-02-07T22:59:32.000Z,10.15
2023-02-07T23:02:01.732Z,14.93
2023-02-07T23:04:30.200Z,16.02
2023-02-07T23:06:58.435Z,16.50
2023-02-07T23:09:26.661Z,12.63
2023-02-07T23:11:55.970Z,12.60
2023-02-07T23:14:24.346Z,14.98
2023-02-07T23:16:52.546Z,12.18
2023-02-07T23:19:20.744Z,15.07
2023-02-07T23:21:51.877Z,15.63
2023-02-07T23:24:20.130Z,13.98
2023-02-07T23:26:48.784Z,15.75
2023-02-07T23:29:20.499Z,13.25
2023-02-07T23:31:50.049Z,13.00
2023-02-07T23:34:18.445Z,14.60
2023-02-07T23:36:46.633Z,15.15
2023-02-07T23:39:15.372Z,14.60
2023-02-07T23:44:11.775Z,13.32
2023-02-07T23:46:40.108Z,14.85
2023-02-07T23:49:08.462Z,13.95
2023-02-07T23:51:39.234Z,17.80
2023-02-07T23:54:12.326Z,12.70
2023-02-07T23:56:40.640Z,13.07
2023-02-07T23:59:10.355Z,12.80
